createdAt,value
2022-07-31T00:00:24.523Z,13.88
2022-07-31T00:02:52.552Z,13.88
2022-07-31T00:05:20.484Z,13.75
2022-07-31T00:07:48.445Z,13.53
2022-07-31T00:10:18.192Z,13.67
2022-07-31T00:12:46.197Z,13.63
2022-07-31T00:15:14.300Z,13.62
2022-07-31T00:17:43.481Z,13.51
2022-07-31T00:20:14.336Z,13.61
2022-07-31T00:22:43.135Z,13.49
2022-07-31T00:25:12.123Z,13.15
2022-07-31T00:27:42.046Z,13.17
2022-07-31T00:30:12.931Z,13.34
2022-07-31T00:32:41.944Z,13.51
2022-07-31T00:35:12.425Z,13.49
2022-07-31T00:37:41.766Z,13.62
2022-07-31T00:40:13.221Z,13.75
2022-07-31T00:42:42.596Z,13.86
2022-07-31T00:45:13.570Z,13.86
2022-07-31T00:47:42.785Z,13.85
2022-07-31T00:50:11.843Z,13.46
2022-07-31T00:52:40.076Z,13.15
2022-07-31T00:55:09.312Z,13.29
2022-07-31T00:57:38.584Z,13.45
2022-07-31T01:00:09.802Z,13.65
2022-07-31T01:02:38.440Z,13.77
2022-07-31T01:05:14.913Z,14.01
2022-07-31T01:07:42.721Z,14.18
2022-07-31T01:10:15.152Z,14.28
2022-07-31T01:12:53.991Z,14.32
2022-07-31T01:15:24.620Z,14.19
2022-07-31T01:17:54.083Z,14.09
2022-07-31T01:20:22.501Z,14.04
2022-07-31T01:23:04.025Z,14.17
2022-07-31T01:25:55.223Z,13.99
2022-07-31T01:28:54.865Z,13.85
2022-07-31T01:31:35.203Z,13.76
2022-07-31T01:34:09.830Z,13.87
2022-07-31T01:36:40.790Z,13.92
2022-07-31T01:39:09.137Z,13.69
2022-07-31T01:41:44.260Z,13.56
2022-07-31T01:44:18.081Z,13.53
2022-07-31T01:46:48.770Z,13.65
2022-07-31T01:49:20.037Z,13.67
2022-07-31T01:51:49.813Z,13.64
2022-07-31T01:54:21.212Z,13.61
2022-07-31T01:56:51.063Z,13.71
2022-07-31T01:59:22.725Z,13.71
2022-07-31T02:02:10.129Z,13.73
2022-07-31T02:04:39.915Z,13.58
2022-07-31T02:07:08.207Z,13.49
2022-07-31T02:09:58.039Z,13.55
2022-07-31T02:12:33.491Z,13.63
2022-07-31T02:15:07.659Z,13.67
2022-07-31T02:17:38.573Z,13.92
2022-07-31T02:20:26.976Z,13.92
2022-07-31T02:22:57.164Z,13.88
2022-07-31T02:25:25.688Z,14.00
2022-07-31T02:27:58.526Z,14.04
2022-07-31T02:30:38.318Z,14.17
2022-07-31T02:33:13.739Z,14.24
2022-07-31T02:35:45.615Z,14.18
2022-07-31T02:38:23.287Z,14.06
2022-07-31T02:40:57.405Z,13.94
2022-07-31T02:43:26.806Z,13.85
2022-07-31T02:45:59.403Z,13.70
2022-07-31T02:48:28.528Z,13.63
2022-07-31T02:51:00.808Z,13.67
2022-07-31T02:53:30.699Z,13.67
2022-07-31T02:56:04.513Z,13.78
2022-07-31T02:58:34.860Z,13.81
2022-07-31T03:01:06.190Z,13.81
2022-07-31T03:03:35.662Z,13.81
2022-07-31T03:06:03.731Z,13.86
2022-07-31T03:08:31.749Z,13.91
2022-07-31T03:11:04.745Z,13.94
2022-07-31T03:13:35.947Z,13.95
2022-07-31T03:16:06.881Z,13.80
2022-07-31T03:18:35.594Z,13.77
2022-07-31T03:21:03.656Z,13.93
2022-07-31T03:23:36.428Z,13.84
2022-07-31T03:26:10.252Z,13.77
2022-07-31T03:28:38.223Z,13.57
2022-07-31T03:31:08.828Z,13.62
2022-07-31T03:33:38.951Z,13.68
2022-07-31T03:36:09.527Z,13.54
2022-07-31T03:38:41.467Z,13.75
2022-07-31T03:41:23.303Z,13.84
2022-07-31T03:43:51.893Z,13.91
2022-07-31T03:46:25.101Z,14.01
2022-07-31T03:48:53.500Z,14.12
2022-07-31T03:51:23.281Z,14.03
2022-07-31T03:53:52.980Z,14.18
2022-07-31T03:56:49.490Z,14.20
2022-07-31T03:59:19.790Z,14.10
2022-07-31T04:01:57.420Z,13.97
2022-07-31T04:04:49.379Z,14.03
2022-07-31T04:07:17.842Z,14.07
2022-07-31T04:09:45.846Z,14.15
2022-07-31T04:12:16.090Z,14.21
2022-07-31T04:14:44.339Z,14.18
2022-07-31T04:17:14.962Z,14.16
2022-07-31T04:19:43.045Z,14.08
2022-07-31T04:22:11.153Z,14.15
2022-07-31T04:24:40.139Z,14.32
2022-07-31T04:27:48.576Z,14.37
2022-07-31T04:30:18.013Z,14.52
2022-07-31T04:32:49.052Z,14.61
2022-07-31T04:35:22.652Z,14.64
2022-07-31T04:37:50.727Z,14.79
2022-07-31T04:40:20.188Z,14.88
2022-07-31T04:42:48.127Z,15.05
2022-07-31T04:45:16.158Z,15.17
2022-07-31T04:47:44.156Z,15.21
2022-07-31T04:50:13.576Z,15.32
2022-07-31T04:52:56.146Z,15.46
2022-07-31T04:55:25.575Z,15.37
2022-07-31T04:57:53.889Z,15.49
2022-07-31T05:00:22.160Z,15.45
2022-07-31T05:02:50.334Z,15.80
2022-07-31T05:05:20.288Z,15.80
2022-07-31T05:07:48.786Z,15.85
2022-07-31T05:10:33.845Z,15.79
2022-07-31T05:13:02.744Z,15.82
2022-07-31T05:15:32.528Z,15.92
2022-07-31T05:18:00.567Z,16.11
2022-07-31T05:20:48.683Z,16.04
2022-07-31T05:23:31.833Z,16.24
2022-07-31T05:26:08.343Z,16.32
2022-07-31T05:28:36.645Z,16.37
2022-07-31T05:31:04.566Z,16.52
2022-07-31T05:33:33.877Z,16.74
2022-07-31T05:36:05.967Z,16.93
2022-07-31T05:38:34.216Z,16.80
2022-07-31T05:41:20.897Z,16.98
2022-07-31T05:44:08.158Z,17.14
2022-07-31T05:46:40.246Z,17.19
2022-07-31T05:49:08.769Z,17.31
2022-07-31T05:51:39.183Z,17.25
2022-07-31T05:54:07.187Z,17.38
2022-07-31T05:56:53.895Z,17.52
2022-07-31T05:59:27.811Z,17.46
2022-07-31T06:01:55.864Z,17.69
2022-07-31T06:04:24.968Z,17.90
2022-07-31T06:06:54.302Z,18.01
2022-07-31T06:09:22.312Z,18.22
2022-07-31T06:11:52.083Z,18.32
2022-07-31T06:14:19.980Z,18.10
2022-07-31T06:17:20.202Z,17.89
2022-07-31T06:19:49.362Z,17.96
2022-07-31T06:22:18.659Z,18.11
2022-07-31T06:24:47.056Z,18.15
2022-07-31T06:27:32.410Z,18.53
2022-07-31T06:30:01.662Z,18.47
2022-07-31T06:32:32.180Z,18.28
2022-07-31T06:35:00.975Z,18.44
2022-07-31T06:37:33.283Z,18.61
2022-07-31T06:40:01.346Z,18.73
2022-07-31T06:42:45.225Z,18.81
2022-07-31T06:45:51.611Z,18.61
2022-07-31T06:48:38.296Z,18.59
2022-07-31T06:54:00.349Z,19.13
2022-07-31T06:56:28.519Z,18.95
2022-07-31T06:58:57.132Z,19.08
2022-07-31T07:01:25.180Z,21.22
2022-07-31T07:03:53.537Z,26.55
2022-07-31T07:06:21.659Z,29.45
2022-07-31T07:08:50.304Z,27.15
2022-07-31T07:11:21.711Z,27.34
2022-07-31T07:13:49.896Z,28.27
2022-07-31T07:16:19.970Z,28.84
2022-07-31T07:18:48.508Z,28.69
2022-07-31T07:21:19.422Z,30.89
2022-07-31T07:23:47.704Z,29.84
2022-07-31T07:26:29.213Z,31.12
2022-07-31T07:28:57.658Z,30.32
2022-07-31T07:31:26.499Z,31.85
2022-07-31T07:33:57.803Z,31.14
2022-07-31T07:36:27.286Z,30.16
2022-07-31T07:39:02.273Z,31.19
2022-07-31T07:41:33.775Z,30.53
2022-07-31T07:44:02.465Z,32.42
2022-07-31T07:46:31.599Z,32.74
2022-07-31T07:49:02.699Z,33.19
2022-07-31T07:51:37.036Z,34.11
2022-07-31T07:54:25.164Z,34.05
2022-07-31T07:57:17.848Z,32.22
2022-07-31T07:59:55.379Z,32.62
2022-07-31T08:02:42.760Z,33.15
2022-07-31T08:05:11.543Z,33.10
2022-07-31T08:07:43.025Z,34.42
2022-07-31T08:10:41.294Z,36.76
2022-07-31T08:13:14.673Z,36.01
2022-07-31T08:16:03.190Z,34.05
2022-07-31T08:18:34.588Z,33.62
2022-07-31T08:21:03.330Z,35.25
2022-07-31T08:23:31.324Z,34.46
2022-07-31T08:25:59.460Z,32.75
2022-07-31T08:28:29.638Z,29.75
2022-07-31T08:30:57.866Z,27.83
2022-07-31T08:33:26.626Z,27.27
2022-07-31T08:35:57.054Z,29.79
2022-07-31T08:38:26.028Z,29.93
2022-07-31T08:41:14.228Z,28.75
2022-07-31T08:44:02.930Z,28.25
2022-07-31T08:46:34.137Z,31.26
2022-07-31T08:49:04.449Z,31.00
2022-07-31T08:51:51.262Z,32.47
2022-07-31T08:54:26.319Z,32.68
2022-07-31T08:56:54.935Z,32.87
2022-07-31T08:59:24.217Z,32.36
2022-07-31T09:01:53.138Z,31.35
2022-07-31T09:04:21.299Z,28.81
2022-07-31T09:06:49.301Z,30.74
2022-07-31T09:09:18.683Z,32.03
2022-07-31T09:11:48.576Z,33.44
2022-07-31T09:14:36.729Z,33.80
2022-07-31T09:17:09.464Z,33.65
2022-07-31T09:19:54.001Z,30.03
2022-07-31T09:22:31.672Z,27.97
2022-07-31T09:25:12.438Z,30.80
2022-07-31T09:27:41.579Z,31.88
2022-07-31T09:30:12.380Z,33.03
2022-07-31T09:33:16.641Z,32.41
2022-07-31T09:36:04.797Z,32.22
2022-07-31T09:38:37.357Z,31.65
2022-07-31T09:41:56.546Z,31.69
2022-07-31T09:44:25.365Z,30.03
2022-07-31T09:46:55.978Z,31.47
2022-07-31T09:49:32.515Z,32.66
2022-07-31T09:52:01.779Z,32.13
2022-07-31T09:54:32.093Z,32.04
2022-07-31T09:57:11.030Z,31.64
2022-07-31T09:59:40.693Z,32.70
2022-07-31T10:02:13.349Z,31.02
2022-07-31T10:04:42.585Z,32.25
2022-07-31T10:07:32.585Z,29.79
2022-07-31T10:10:25.293Z,28.43
2022-07-31T10:12:57.664Z,30.28
2022-07-31T10:15:27.519Z,30.49
2022-07-31T10:18:18.716Z,27.57
2022-07-31T10:21:17.578Z,26.98
2022-07-31T10:23:55.712Z,28.85
2022-07-31T10:26:39.154Z,27.64
2022-07-31T10:29:12.306Z,28.16
2022-07-31T10:31:41.018Z,26.25
2022-07-31T10:34:13.575Z,28.26
2022-07-31T10:37:11.189Z,29.32
2022-07-31T10:40:10.546Z,28.70
2022-07-31T10:42:47.217Z,28.36
2022-07-31T10:45:17.805Z,29.54
2022-07-31T10:47:59.949Z,29.29
2022-07-31T10:51:04.315Z,30.63
2022-07-31T10:53:58.720Z,29.57
2022-07-31T10:56:59.135Z,28.35
2022-07-31T10:59:44.893Z,29.32
2022-07-31T11:02:16.009Z,29.76
2022-07-31T11:04:51.047Z,30.08
2022-07-31T11:08:03.888Z,29.27
2022-07-31T11:10:53.434Z,29.91
2022-07-31T11:13:49.800Z,30.06
2022-07-31T11:16:36.369Z,28.06
2022-07-31T11:19:24.756Z,28.52
2022-07-31T11:21:57.352Z,29.27
2022-07-31T11:24:26.720Z,29.89
2022-07-31T11:26:57.346Z,27.28
2022-07-31T11:30:01.031Z,27.20
2022-07-31T11:32:25.234Z,28.21
2022-07-31T11:34:56.783Z,29.38
2022-07-31T11:37:30.683Z,30.20
2022-07-31T11:40:16.299Z,29.73
2022-07-31T11:42:46.435Z,28.37
2022-07-31T11:45:18.830Z,29.61
2022-07-31T11:48:11.096Z,29.11
2022-07-31T11:50:41.293Z,29.39
2022-07-31T11:53:09.293Z,29.85
2022-07-31T11:55:48.698Z,30.35
2022-07-31T11:58:17.931Z,29.04
2022-07-31T12:00:53.494Z,29.44
2022-07-31T12:03:23.417Z,28.85
2022-07-31T12:05:53.416Z,27.98
2022-07-31T12:08:22.775Z,28.62
2022-07-31T12:10:53.639Z,28.77
2022-07-31T12:13:23.143Z,29.41
2022-07-31T12:15:59.917Z,29.77
2022-07-31T12:18:29.810Z,29.90
2022-07-31T12:21:01.526Z,29.43
2022-07-31T12:23:41.826Z,30.17
2022-07-31T12:26:17.169Z,30.74
2022-07-31T12:28:45.180Z,30.46
2022-07-31T12:31:13.685Z,29.36
2022-07-31T12:33:44.465Z,27.42
2022-07-31T12:36:15.347Z,26.57
2022-07-31T12:38:47.969Z,26.62
2022-07-31T12:41:18.367Z,26.73
2022-07-31T12:43:51.050Z,26.55
2022-07-31T12:46:36.704Z,26.56
2022-07-31T12:49:05.445Z,27.08
2022-07-31T12:51:45.330Z,26.66
2022-07-31T12:54:16.521Z,27.01
2022-07-31T12:56:46.916Z,26.24
2022-07-31T12:59:15.329Z,26.95
2022-07-31T13:01:43.347Z,27.45
2022-07-31T13:04:19.223Z,27.60
2022-07-31T13:06:51.365Z,27.79
2022-07-31T13:09:20.430Z,28.14
2022-07-31T13:11:54.500Z,28.61
2022-07-31T13:14:25.697Z,28.81
2022-07-31T13:16:55.278Z,28.85
2022-07-31T13:19:23.293Z,29.43
2022-07-31T13:21:51.406Z,28.73
2022-07-31T13:24:20.197Z,29.50
2022-07-31T13:26:50.253Z,28.64
2022-07-31T13:29:18.919Z,27.24
2022-07-31T13:31:47.952Z,26.63
2022-07-31T13:34:17.033Z,26.22
2022-07-31T13:36:44.942Z,25.90
2022-07-31T13:39:13.182Z,25.93
2022-07-31T13:41:41.811Z,25.87
2022-07-31T13:44:11.297Z,25.63
2022-07-31T13:46:39.210Z,25.51
2022-07-31T13:49:10.372Z,25.35
2022-07-31T13:51:39.614Z,25.08
2022-07-31T13:54:07.743Z,25.06
2022-07-31T13:56:41.881Z,25.14
2022-07-31T13:59:14.050Z,25.02
2022-07-31T14:02:03.444Z,25.47
2022-07-31T14:04:32.907Z,25.53
2022-07-31T14:07:07.638Z,25.63
2022-07-31T14:09:37.631Z,25.56
2022-07-31T14:12:06.496Z,25.13
2022-07-31T14:14:36.023Z,25.48
2022-07-31T14:17:04.113Z,25.62
2022-07-31T14:19:44.059Z,25.18
2022-07-31T14:22:14.163Z,25.17
2022-07-31T14:24:49.408Z,25.12
2022-07-31T14:27:19.885Z,25.30
2022-07-31T14:29:49.439Z,25.00
2022-07-31T14:32:19.431Z,25.08
2022-07-31T14:34:48.595Z,25.37
2022-07-31T14:37:16.578Z,25.02
2022-07-31T14:39:44.767Z,25.34
2022-07-31T14:42:12.859Z,25.30
2022-07-31T14:44:42.498Z,24.97
2022-07-31T14:47:12.814Z,25.30
2022-07-31T14:50:06.851Z,25.06
2022-07-31T14:52:30.275Z,24.98
2022-07-31T14:54:59.037Z,24.98
2022-07-31T14:57:27.164Z,25.01
2022-07-31T14:59:55.609Z,25.11
2022-07-31T15:02:25.020Z,25.38
2022-07-31T15:04:53.622Z,25.61
2022-07-31T15:07:42.367Z,25.90
2022-07-31T15:10:12.175Z,25.82
2022-07-31T15:12:40.265Z,26.26
2022-07-31T15:15:09.548Z,27.29
2022-07-31T15:17:39.159Z,28.92
2022-07-31T15:20:08.331Z,29.70
2022-07-31T15:22:36.713Z,30.01
2022-07-31T15:25:05.047Z,30.13
2022-07-31T15:27:33.095Z,30.19
2022-07-31T15:30:06.765Z,30.51
2022-07-31T15:32:37.401Z,30.54
2022-07-31T15:35:09.268Z,31.55
2022-07-31T15:37:38.306Z,30.84
2022-07-31T15:40:08.707Z,30.44
2022-07-31T15:42:40.824Z,30.00
2022-07-31T15:45:10.468Z,30.95
2022-07-31T15:47:39.384Z,30.36
2022-07-31T15:50:11.405Z,30.81
2022-07-31T15:52:39.605Z,30.33
2022-07-31T15:55:09.048Z,30.50
2022-07-31T15:57:37.687Z,30.28
2022-07-31T16:00:07.635Z,30.27
2022-07-31T16:02:39.464Z,30.48
2022-07-31T16:05:21.643Z,30.30
2022-07-31T16:08:30.275Z,30.75
2022-07-31T16:10:52.611Z,30.09
2022-07-31T16:13:22.088Z,30.18
2022-07-31T16:15:50.007Z,29.97
2022-07-31T16:18:19.785Z,29.58
2022-07-31T16:20:49.267Z,29.80
2022-07-31T16:23:17.513Z,28.77
2022-07-31T16:25:45.549Z,28.83
2022-07-31T16:28:15.162Z,29.05
2022-07-31T16:30:43.819Z,28.71
2022-07-31T16:33:12.663Z,28.98
2022-07-31T16:35:41.336Z,29.40
2022-07-31T16:38:10.624Z,29.21
2022-07-31T16:40:38.672Z,29.53
2022-07-31T16:43:48.048Z,29.35
2022-07-31T16:45:56.940Z,29.30
2022-07-31T16:48:24.880Z,29.52
2022-07-31T16:50:54.448Z,29.20
2022-07-31T16:54:09.915Z,29.60
2022-07-31T16:56:12.715Z,29.29
2022-07-31T16:58:40.898Z,29.11
2022-07-31T17:01:53.941Z,29.24
2022-07-31T17:04:01.228Z,28.95
2022-07-31T17:06:36.074Z,29.24
2022-07-31T17:09:17.171Z,28.79
2022-07-31T17:11:48.302Z,28.91
2022-07-31T17:14:16.824Z,28.77
2022-07-31T17:16:47.621Z,28.75
2022-07-31T17:19:16.751Z,28.82
2022-07-31T17:22:04.833Z,28.99
2022-07-31T17:24:34.786Z,29.37
2022-07-31T17:27:04.738Z,29.14
2022-07-31T17:29:33.052Z,29.26
2022-07-31T17:32:02.484Z,29.03
2022-07-31T17:34:31.460Z,29.15
2022-07-31T17:36:59.491Z,29.45
2022-07-31T17:39:30.803Z,29.51
2022-07-31T17:42:00.558Z,29.13
2022-07-31T17:44:28.627Z,29.13
2022-07-31T17:47:03.657Z,29.01
2022-07-31T17:49:33.570Z,28.88
2022-07-31T17:52:01.445Z,28.68
2022-07-31T17:54:30.345Z,28.74
2022-07-31T17:56:58.407Z,28.66
2022-07-31T17:59:28.103Z,28.50
2022-07-31T18:02:00.086Z,27.73
2022-07-31T18:04:28.900Z,26.95
2022-07-31T18:06:56.753Z,26.61
2022-07-31T18:09:25.197Z,26.04
2022-07-31T18:11:54.354Z,25.58
2022-07-31T18:14:24.573Z,25.32
2022-07-31T18:16:54.879Z,25.02
2022-07-31T18:19:23.175Z,24.74
2022-07-31T18:21:52.133Z,24.55
2022-07-31T18:24:20.656Z,24.46
2022-07-31T18:26:49.341Z,24.02
2022-07-31T18:29:17.758Z,23.64
2022-07-31T18:31:46.839Z,23.33
2022-07-31T18:34:17.157Z,22.75
2022-07-31T18:36:45.522Z,22.58
2022-07-31T18:39:13.498Z,22.36
2022-07-31T18:41:46.899Z,22.15
2022-07-31T18:44:16.531Z,21.82
2022-07-31T18:46:44.448Z,21.68
2022-07-31T18:50:58.462Z,21.67
2022-07-31T18:52:03.434Z,21.67
2022-07-31T18:54:31.836Z,21.74
2022-07-31T18:56:59.725Z,21.54
2022-07-31T18:59:28.004Z,21.51
2022-07-31T19:01:56.757Z,21.46
2022-07-31T19:04:24.884Z,21.11
2022-07-31T19:06:54.488Z,20.69
2022-07-31T19:09:25.310Z,20.56
2022-07-31T19:12:02.641Z,20.20
2022-07-31T19:14:35.612Z,20.05
2022-07-31T19:17:03.964Z,20.07
2022-07-31T19:19:45.001Z,20.15
2022-07-31T19:22:21.040Z,20.15
2022-07-31T19:24:50.824Z,19.85
2022-07-31T19:27:19.636Z,19.91
2022-07-31T19:29:47.502Z,19.60
2022-07-31T19:32:15.981Z,19.44
2022-07-31T19:34:47.842Z,19.56
2022-07-31T19:37:18.225Z,19.58
2022-07-31T19:39:46.705Z,19.75
2022-07-31T19:42:16.054Z,19.87
2022-07-31T19:44:43.891Z,19.75
2022-07-31T19:47:11.724Z,19.59
2022-07-31T19:49:41.261Z,19.39
2022-07-31T19:52:09.360Z,19.25
2022-07-31T19:54:37.576Z,19.43
2022-07-31T19:57:05.669Z,19.33
2022-07-31T19:59:34.805Z,19.33
2022-07-31T20:02:02.883Z,19.21
2022-07-31T20:04:30.938Z,18.99
2022-07-31T20:06:58.952Z,19.02
2022-07-31T20:09:26.825Z,18.81
2022-07-31T20:11:54.648Z,18.98
2022-07-31T20:14:22.573Z,19.10
2022-07-31T20:16:51.704Z,19.09
2022-07-31T20:19:19.565Z,19.10
2022-07-31T20:21:47.385Z,19.06
2022-07-31T20:24:17.696Z,18.93
2022-07-31T20:26:45.760Z,18.86
2022-07-31T20:29:13.584Z,18.85
2022-07-31T20:31:41.406Z,18.85
2022-07-31T20:34:12.474Z,18.88
2022-07-31T20:36:40.724Z,19.01
2022-07-31T20:39:08.683Z,19.08
2022-07-31T20:41:36.994Z,19.31
2022-07-31T20:44:05.409Z,19.16
2022-07-31T20:46:33.311Z,19.27
2022-07-31T20:49:01.443Z,19.25
2022-07-31T20:51:30.854Z,19.41
2022-07-31T20:53:58.751Z,19.44
2022-07-31T20:56:26.580Z,19.54
2022-07-31T20:58:54.908Z,19.36
2022-07-31T21:01:23.106Z,19.43
2022-07-31T21:03:51.217Z,19.41
2022-07-31T21:06:20.960Z,19.38
2022-07-31T21:08:50.477Z,19.35
2022-07-31T21:11:20.166Z,19.40
2022-07-31T21:13:48.034Z,19.42
2022-07-31T21:16:16.442Z,19.40
2022-07-31T21:18:44.393Z,19.45
2022-07-31T21:21:12.356Z,19.41
2022-07-31T21:23:40.224Z,19.42
2022-07-31T21:26:10.058Z,19.47
2022-07-31T21:28:39.563Z,19.56
2022-07-31T21:31:07.904Z,19.68
2022-07-31T21:33:37.445Z,19.58
2022-07-31T21:36:06.864Z,19.47
2022-07-31T21:38:36.605Z,19.65
2022-07-31T21:41:04.828Z,19.79
2022-07-31T21:43:58.990Z,19.79
2022-07-31T21:46:23.274Z,19.73
2022-07-31T21:48:52.904Z,19.74
2022-07-31T21:51:21.193Z,19.61
2022-07-31T21:53:49.108Z,19.74
2022-07-31T21:56:17.172Z,19.72
2022-07-31T21:58:46.380Z,19.79
2022-07-31T22:01:15.344Z,19.79
2022-07-31T22:03:43.552Z,19.86
2022-07-31T22:06:28.953Z,19.67
2022-07-31T22:08:56.832Z,19.77
2022-07-31T22:11:24.720Z,19.82
2022-07-31T22:13:54.016Z,19.75
2022-07-31T22:16:21.928Z,19.74
2022-07-31T22:18:51.369Z,19.63
2022-07-31T22:21:20.099Z,19.69
2022-07-31T22:23:48.588Z,19.53
2022-07-31T22:26:16.762Z,19.66
2022-07-31T22:28:45.359Z,19.44
2022-07-31T22:31:15.066Z,19.36
2022-07-31T22:33:44.082Z,19.65
2022-07-31T22:36:13.592Z,19.64
2022-07-31T22:38:45.299Z,19.58
2022-07-31T22:41:14.104Z,19.53
2022-07-31T22:44:12.552Z,19.71
2022-07-31T22:46:33.179Z,19.64
2022-07-31T22:49:02.751Z,19.63
2022-07-31T22:51:32.092Z,19.65
2022-07-31T22:54:01.872Z,19.56
2022-07-31T22:56:29.821Z,19.59
2022-07-31T22:58:57.749Z,19.65
2022-07-31T23:01:25.638Z,19.59
2022-07-31T23:03:54.823Z,19.60
2022-07-31T23:06:30.924Z,19.58
2022-07-31T23:08:59.884Z,19.40
2022-07-31T23:11:27.769Z,19.27
2022-07-31T23:13:55.772Z,19.35
2022-07-31T23:16:23.718Z,19.34
2022-07-31T23:18:52.246Z,19.27
2022-07-31T23:21:22.217Z,19.24
2022-07-31T23:23:50.286Z,19.24
2022-07-31T23:26:19.067Z,19.32
2022-07-31T23:28:47.532Z,19.30
2022-07-31T23:31:16.039Z,19.40
2022-07-31T23:33:45.172Z,19.49
2022-07-31T23:36:14.244Z,19.42
2022-07-31T23:38:43.832Z,19.46
2022-07-31T23:41:12.714Z,19.39
2022-07-31T23:43:39.920Z,19.41
2022-07-31T23:46:07.841Z,19.39
2022-07-31T23:48:36.002Z,19.47
2022-07-31T23:51:04.226Z,19.33
2022-07-31T23:53:32.099Z,19.19
2022-07-31T23:56:01.380Z,19.26
2022-07-31T23:58:29.293Z,18.95
